createdAt,value
2022-08-03T00:00:44.339Z,114.70
2022-08-03T00:03:13.682Z,89.97
2022-08-03T00:06:04.161Z,157.45
2022-08-03T00:08:32.463Z,125.05
2022-08-03T00:11:08.661Z,72.93
2022-08-03T00:13:38.283Z,95.65
2022-08-03T00:16:07.938Z,95.57
2022-08-03T00:18:37.192Z,92.60
2022-08-03T00:21:06.949Z,137.32
2022-08-03T00:23:51.602Z,81.07
2022-08-03T00:26:23.563Z,65.82
2022-08-03T00:28:53.083Z,82.05
2022-08-03T00:31:39.850Z,103.45
2022-08-03T00:34:12.437Z,71.50
2022-08-03T00:36:42.188Z,105.63
2022-08-03T00:39:11.742Z,79.80
2022-08-03T00:41:42.341Z,114.13
2022-08-03T00:44:11.667Z,77.82
2022-08-03T00:46:40.928Z,92.03
2022-08-03T00:49:10.369Z,78.95
2022-08-03T00:51:39.931Z,74.03
2022-08-03T00:54:09.228Z,91.70
2022-08-03T00:56:39.141Z,138.55
2022-08-03T00:59:31.145Z,139.48
2022-08-03T01:02:00.358Z,128.15
2022-08-03T01:04:29.618Z,102.88
2022-08-03T01:07:11.153Z,168.43
2022-08-03T01:10:01.980Z,156.00
2022-08-03T01:12:39.863Z,100.75
2022-08-03T01:15:19.610Z,80.78
2022-08-03T01:17:57.983Z,59.60
2022-08-03T01:20:35.021Z,78.53
2022-08-03T01:23:34.645Z,138.05
2022-08-03T01:27:03.677Z,78.75
2022-08-03T01:29:53.279Z,55.05
2022-08-03T01:33:02.896Z,74.32
2022-08-03T01:35:23.221Z,64.43
2022-08-03T01:37:59.171Z,147.52
2022-08-03T01:40:30.997Z,86.38
2022-08-03T01:43:03.502Z,63.72
2022-08-03T01:48:05.215Z,51.22
2022-08-03T01:50:35.658Z,52.95
2022-08-03T01:53:05.658Z,93.95
2022-08-03T01:55:36.388Z,80.07
2022-08-03T01:58:08.058Z,73.15
2022-08-03T02:00:40.180Z,101.00
2022-08-03T02:03:11.649Z,105.60
2022-08-03T02:05:42.333Z,94.43
2022-08-03T02:08:15.355Z,116.93
2022-08-03T02:10:46.339Z,64.40
2022-08-03T02:13:18.519Z,159.00
2022-08-03T02:15:51.814Z,72.43
2022-08-03T02:18:22.883Z,80.22
2022-08-03T02:20:53.202Z,62.45
2022-08-03T02:23:22.502Z,70.78
2022-08-03T02:25:59.960Z,71.57
2022-08-03T02:28:36.736Z,78.57
2022-08-03T02:31:14.360Z,86.13
2022-08-03T02:33:50.225Z,60.42
2022-08-03T02:36:24.901Z,63.60
2022-08-03T02:38:58.183Z,89.22
2022-08-03T02:41:34.697Z,67.00
2022-08-03T02:44:09.727Z,71.03
2022-08-03T02:46:46.908Z,228.00
2022-08-03T02:49:40.424Z,228.27
2022-08-03T02:52:15.866Z,131.23
2022-08-03T02:54:47.548Z,79.85
2022-08-03T02:57:19.477Z,264.80
2022-08-03T02:59:49.618Z,81.18
2022-08-03T03:02:21.214Z,86.72
2022-08-03T03:05:50.792Z,67.60
2022-08-03T03:07:51.392Z,62.50
2022-08-03T03:10:23.743Z,261.50
2022-08-03T03:12:57.438Z,167.55
2022-08-03T03:15:29.695Z,68.32
2022-08-03T03:18:02.455Z,116.85
2022-08-03T03:23:03.358Z,79.72
2022-08-03T03:25:34.483Z,67.90
2022-08-03T03:28:06.294Z,59.30
2022-08-03T03:30:36.321Z,55.53
2022-08-03T03:33:07.772Z,56.50
2022-08-03T03:35:39.109Z,58.83
2022-08-03T03:38:08.778Z,74.40
2022-08-03T03:40:38.370Z,55.80
2022-08-03T03:43:10.023Z,89.13
2022-08-03T03:45:39.678Z,60.15
2022-08-03T03:48:10.897Z,71.43
2022-08-03T03:50:41.265Z,60.45
2022-08-03T03:53:14.395Z,70.88
2022-08-03T03:55:58.914Z,67.28
2022-08-03T03:58:33.724Z,79.25
2022-08-03T04:01:03.521Z,93.90
2022-08-03T04:03:34.300Z,69.82
2022-08-03T04:06:21.134Z,162.13
2022-08-03T04:09:07.601Z,88.80
2022-08-03T04:11:43.098Z,56.55
2022-08-03T04:14:19.058Z,56.60
2022-08-03T04:16:53.042Z,78.32
2022-08-03T04:19:32.152Z,66.20
2022-08-03T04:22:07.975Z,106.18
2022-08-03T04:24:43.025Z,72.25
2022-08-03T04:27:17.997Z,63.53
2022-08-03T04:29:50.805Z,127.32
2022-08-03T04:32:21.488Z,58.42
2022-08-03T04:34:52.728Z,65.43
2022-08-03T04:37:33.568Z,52.45
2022-08-03T04:40:08.824Z,79.80
2022-08-03T04:42:40.275Z,76.95
2022-08-03T04:45:14.646Z,89.80
2022-08-03T04:47:44.866Z,61.70
2022-08-03T04:50:21.188Z,67.18
2022-08-03T04:53:08.100Z,56.10
2022-08-03T04:55:37.903Z,73.88
2022-08-03T04:58:07.675Z,57.20
2022-08-03T05:00:39.966Z,55.80
2022-08-03T05:03:20.144Z,68.90
2022-08-03T05:06:09.822Z,69.90
2022-08-03T05:08:46.190Z,67.20
2022-08-03T05:11:18.711Z,77.15
2022-08-03T05:13:48.414Z,51.22
2022-08-03T05:16:19.246Z,84.63
2022-08-03T05:18:48.512Z,69.25
2022-08-03T05:21:19.633Z,61.65
2022-08-03T05:23:49.013Z,129.90
2022-08-03T05:26:18.440Z,69.50
2022-08-03T05:28:50.795Z,79.75
2022-08-03T05:31:21.063Z,50.05
2022-08-03T05:33:50.560Z,57.60
2022-08-03T05:36:21.526Z,64.18
2022-08-03T05:38:50.907Z,59.10
2022-08-03T05:41:21.961Z,69.20
2022-08-03T05:43:54.201Z,146.73
2022-08-03T05:46:24.275Z,63.97
2022-08-03T05:48:53.801Z,70.47
2022-08-03T05:51:24.664Z,129.82
2022-08-03T05:53:56.765Z,138.13
2022-08-03T05:56:26.665Z,63.55
2022-08-03T05:58:56.221Z,52.55
2022-08-03T06:01:27.959Z,68.97
2022-08-03T06:03:57.446Z,106.68
2022-08-03T06:06:32.291Z,105.32
2022-08-03T06:09:01.834Z,75.47
2022-08-03T06:11:31.009Z,59.90
2022-08-03T06:14:01.153Z,51.00
2022-08-03T06:16:30.470Z,55.47
2022-08-03T06:18:59.649Z,73.15
2022-08-03T06:21:30.630Z,97.95
2022-08-03T06:24:00.368Z,52.63
2022-08-03T06:26:33.815Z,70.97
2022-08-03T06:29:03.877Z,57.08
2022-08-03T06:31:33.823Z,63.22
2022-08-03T06:34:34.506Z,78.40
2022-08-03T06:37:01.745Z,67.63
2022-08-03T06:39:31.709Z,58.90
2022-08-03T06:42:01.049Z,64.43
2022-08-03T06:44:32.126Z,106.65
2022-08-03T06:47:09.139Z,137.95
2022-08-03T06:49:42.322Z,166.93
2022-08-03T06:52:13.305Z,66.30
2022-08-03T06:55:02.936Z,62.05
2022-08-03T06:57:32.239Z,153.55
2022-08-03T07:00:07.972Z,71.97
2022-08-03T07:02:41.139Z,190.23
2022-08-03T07:05:14.084Z,64.93
2022-08-03T07:07:45.057Z,58.53
2022-08-03T07:10:14.559Z,92.35
2022-08-03T07:12:55.786Z,106.93
2022-08-03T07:15:53.847Z,69.38
2022-08-03T07:18:16.308Z,70.60
2022-08-03T07:20:45.729Z,102.20
2022-08-03T07:23:19.311Z,58.03
2022-08-03T07:25:48.809Z,54.10
2022-08-03T07:28:18.194Z,64.00
2022-08-03T07:30:47.553Z,77.68
2022-08-03T07:33:17.063Z,96.47
2022-08-03T07:35:46.798Z,74.57
2022-08-03T07:38:20.896Z,75.80
2022-08-03T07:40:50.748Z,119.38
2022-08-03T07:43:19.954Z,78.75
2022-08-03T07:45:49.213Z,82.50
2022-08-03T07:48:18.415Z,145.27
2022-08-03T07:50:47.939Z,104.55
2022-08-03T07:53:18.495Z,81.40
2022-08-03T07:55:47.868Z,107.80
2022-08-03T07:58:20.639Z,100.00
2022-08-03T08:00:54.071Z,122.95
2022-08-03T08:03:23.339Z,99.70
2022-08-03T08:05:53.697Z,141.57
2022-08-03T08:08:24.378Z,117.38
2022-08-03T08:10:57.894Z,92.32
2022-08-03T08:13:28.053Z,105.15
2022-08-03T08:15:57.333Z,91.68
2022-08-03T08:18:29.601Z,99.70
2022-08-03T08:21:01.638Z,89.70
2022-08-03T08:23:42.149Z,96.60
2022-08-03T08:26:14.022Z,80.72
2022-08-03T08:28:43.214Z,98.32
2022-08-03T08:31:12.413Z,78.85
2022-08-03T08:34:03.272Z,97.68
2022-08-03T08:36:31.240Z,94.03
2022-08-03T08:39:02.217Z,121.60
2022-08-03T08:41:33.945Z,103.65
2022-08-03T08:44:03.641Z,127.57
2022-08-03T08:46:35.024Z,101.65
2022-08-03T08:49:04.899Z,93.97
2022-08-03T08:51:59.296Z,107.55
2022-08-03T08:54:29.165Z,76.88
2022-08-03T08:57:09.105Z,108.07
2022-08-03T08:59:47.922Z,91.63
2022-08-03T09:02:18.632Z,89.35
2022-08-03T09:04:48.950Z,106.47
2022-08-03T09:07:20.364Z,92.88
2022-08-03T09:10:10.874Z,116.72
2022-08-03T09:12:43.756Z,80.32
2022-08-03T09:15:25.193Z,88.75
2022-08-03T09:17:59.295Z,90.22
2022-08-03T09:20:35.180Z,107.50
2022-08-03T09:23:26.230Z,109.57
2022-08-03T09:26:01.841Z,86.55
2022-08-03T09:29:01.558Z,92.82
2022-08-03T09:31:34.613Z,122.40
2022-08-03T09:34:06.453Z,109.50
2022-08-03T09:36:39.824Z,108.53
2022-08-03T09:39:12.187Z,99.43
2022-08-03T09:41:48.816Z,103.45
2022-08-03T09:44:25.133Z,95.57
2022-08-03T09:46:57.450Z,175.52
2022-08-03T09:49:27.126Z,96.07
2022-08-03T09:52:38.135Z,91.35
2022-08-03T09:54:51.993Z,112.03
2022-08-03T09:57:27.864Z,83.40
2022-08-03T10:00:11.207Z,84.32
2022-08-03T10:02:44.783Z,105.03
2022-08-03T10:05:19.580Z,96.68
2022-08-03T10:07:51.360Z,92.15
2022-08-03T10:10:29.906Z,105.38
2022-08-03T10:13:02.963Z,88.38
2022-08-03T10:16:23.291Z,111.93
2022-08-03T10:18:24.170Z,89.43
2022-08-03T10:21:03.309Z,113.13
2022-08-03T10:23:36.090Z,93.70
2022-08-03T10:26:08.891Z,78.18
2022-08-03T10:28:50.829Z,95.80
2022-08-03T10:31:23.669Z,100.68
2022-08-03T10:33:58.456Z,104.28
2022-08-03T10:36:33.212Z,93.82
2022-08-03T10:39:04.082Z,111.13
2022-08-03T10:41:46.633Z,112.97
2022-08-03T10:44:22.698Z,101.13
2022-08-03T10:46:53.139Z,97.65
2022-08-03T10:49:34.036Z,125.10
2022-08-03T10:52:13.409Z,87.45
2022-08-03T10:55:13.124Z,102.00
2022-08-03T10:57:58.455Z,94.38
2022-08-03T11:00:31.325Z,119.10
2022-08-03T11:05:43.526Z,104.32
2022-08-03T11:08:30.981Z,115.47
2022-08-03T11:11:20.175Z,108.00
2022-08-03T11:14:02.052Z,103.13
2022-08-03T11:16:36.275Z,113.38
2022-08-03T11:19:07.905Z,121.38
2022-08-03T11:21:59.386Z,119.63
2022-08-03T11:25:04.555Z,118.53
2022-08-03T11:27:35.387Z,127.30
2022-08-03T11:30:08.690Z,133.30
2022-08-03T11:33:01.828Z,127.93
2022-08-03T11:35:34.078Z,143.95
2022-08-03T11:38:12.743Z,133.38
2022-08-03T11:40:45.434Z,149.48
2022-08-03T11:43:49.487Z,123.55
2022-08-03T11:46:28.388Z,142.57
2022-08-03T11:49:10.717Z,124.07
2022-08-03T11:51:41.263Z,134.17
2022-08-03T11:54:11.549Z,136.73
2022-08-03T11:56:49.046Z,139.20
2022-08-03T11:59:22.201Z,127.80
2022-08-03T12:01:52.273Z,131.48
2022-08-03T12:04:23.002Z,113.57
2022-08-03T12:07:02.462Z,130.68
2022-08-03T12:09:31.692Z,114.25
2022-08-03T12:12:01.364Z,133.68
2022-08-03T12:14:48.748Z,119.28
2022-08-03T12:17:21.196Z,123.82
2022-08-03T12:19:52.546Z,141.68
2022-08-03T12:22:33.878Z,116.20
2022-08-03T12:25:03.173Z,176.63
2022-08-03T12:27:32.504Z,126.90
2022-08-03T12:30:03.274Z,117.90
2022-08-03T12:32:33.477Z,110.68
2022-08-03T12:35:06.044Z,114.40
2022-08-03T12:37:35.727Z,136.40
2022-08-03T12:40:10.624Z,138.15
2022-08-03T12:42:41.685Z,146.93
2022-08-03T12:45:21.505Z,137.52
2022-08-03T12:47:56.233Z,150.20
2022-08-03T12:50:29.102Z,170.50
2022-08-03T12:52:59.920Z,180.38
2022-08-03T12:55:56.252Z,162.80
2022-08-03T12:58:36.452Z,159.57
2022-08-03T13:01:09.710Z,157.23
2022-08-03T13:03:49.682Z,182.38
2022-08-03T13:06:23.253Z,184.75
2022-08-03T13:09:03.933Z,198.02
2022-08-03T13:11:58.256Z,166.93
2022-08-03T13:14:23.788Z,181.23
2022-08-03T13:16:53.181Z,171.38
2022-08-03T13:19:22.421Z,135.98
2022-08-03T13:22:01.333Z,134.10
2022-08-03T13:24:34.943Z,142.52
2022-08-03T13:28:01.560Z,152.18
2022-08-03T13:29:56.415Z,123.47
2022-08-03T13:32:25.916Z,138.85
2022-08-03T13:34:55.098Z,205.43
2022-08-03T13:37:26.472Z,154.82
2022-08-03T13:39:58.862Z,193.25
2022-08-03T13:42:31.568Z,192.95
2022-08-03T13:45:02.602Z,168.45
2022-08-03T13:47:31.966Z,171.35
2022-08-03T13:50:03.175Z,193.52
2022-08-03T13:55:08.284Z,198.65
2022-08-03T13:58:05.418Z,207.32
2022-08-03T14:00:29.527Z,205.40
2022-08-03T14:03:16.068Z,237.68
2022-08-03T14:05:45.871Z,196.30
2022-08-03T14:08:16.450Z,209.35
2022-08-03T14:10:46.697Z,235.00
2022-08-03T14:13:17.721Z,190.00
2022-08-03T14:15:50.902Z,238.32
2022-08-03T14:18:27.819Z,205.95
2022-08-03T14:21:06.753Z,194.40
2022-08-03T14:23:38.976Z,227.73
2022-08-03T14:26:09.385Z,212.73
2022-08-03T14:28:38.805Z,198.32
2022-08-03T14:32:10.362Z,193.07
2022-08-03T14:33:58.226Z,164.45
2022-08-03T14:36:27.801Z,173.77
2022-08-03T14:39:01.396Z,172.18
2022-08-03T14:41:31.317Z,185.27
2022-08-03T14:44:01.958Z,185.80
2022-08-03T14:46:32.633Z,181.43
2022-08-03T14:50:29.295Z,147.35
2022-08-03T14:51:53.872Z,113.70
2022-08-03T14:56:54.208Z,125.82
2022-08-03T14:59:23.365Z,146.23
2022-08-03T15:02:04.438Z,131.25
2022-08-03T15:04:36.320Z,142.27
2022-08-03T15:07:05.814Z,119.15
2022-08-03T15:09:38.102Z,123.93
2022-08-03T15:14:37.846Z,82.15
2022-08-03T15:17:08.143Z,119.80
2022-08-03T15:20:03.859Z,95.88
2022-08-03T15:22:34.771Z,107.82
2022-08-03T15:26:32.121Z,123.13
2022-08-03T15:28:03.320Z,104.83
2022-08-03T15:30:37.037Z,111.05
2022-08-03T15:33:06.998Z,114.57
2022-08-03T15:35:39.157Z,120.30
2022-08-03T15:38:11.750Z,112.70
2022-08-03T15:40:44.936Z,135.90
2022-08-03T15:43:14.317Z,132.20
2022-08-03T15:45:45.121Z,109.38
2022-08-03T15:48:14.486Z,101.43
2022-08-03T15:50:43.881Z,109.95
2022-08-03T15:53:18.825Z,100.25
2022-08-03T15:55:49.570Z,98.25
2022-08-03T15:59:10.002Z,131.10
2022-08-03T16:01:15.284Z,118.88
2022-08-03T16:03:50.049Z,128.77
2022-08-03T16:06:29.412Z,105.07
2022-08-03T16:09:05.585Z,123.03
2022-08-03T16:11:55.275Z,119.05
2022-08-03T16:14:34.818Z,98.18
2022-08-03T16:19:40.443Z,89.78
2022-08-03T16:22:10.475Z,105.07
2022-08-03T16:27:36.810Z,104.10
2022-08-03T16:30:03.452Z,94.68
2022-08-03T16:32:34.111Z,131.23
2022-08-03T16:35:04.042Z,93.82
2022-08-03T16:37:38.654Z,110.38
2022-08-03T16:40:17.303Z,101.78
2022-08-03T16:42:50.024Z,91.10
2022-08-03T16:45:19.443Z,105.70
2022-08-03T16:48:01.297Z,120.82
2022-08-03T16:50:35.111Z,99.57
2022-08-03T16:53:09.186Z,102.95
2022-08-03T16:55:48.522Z,89.68
2022-08-03T16:58:34.471Z,99.80
2022-08-03T17:01:21.521Z,107.72
2022-08-03T17:03:57.727Z,101.60
2022-08-03T17:06:34.447Z,99.28
2022-08-03T17:09:09.823Z,104.53
2022-08-03T17:11:46.430Z,100.07
2022-08-03T17:14:22.658Z,110.72
2022-08-03T17:16:54.759Z,102.72
2022-08-03T17:19:26.494Z,101.72
2022-08-03T17:22:04.589Z,106.85
2022-08-03T17:24:36.910Z,90.20
2022-08-03T17:28:48.572Z,120.97
2022-08-03T17:30:12.151Z,91.70
2022-08-03T17:32:52.397Z,121.97
2022-08-03T17:35:34.382Z,105.15
2022-08-03T17:38:12.125Z,96.70
2022-08-03T17:40:50.040Z,101.88
2022-08-03T17:44:13.169Z,105.63
2022-08-03T17:46:12.622Z,105.40
2022-08-03T17:48:42.799Z,114.43
2022-08-03T17:51:22.291Z,107.05
2022-08-03T17:54:18.371Z,145.52
2022-08-03T17:57:22.383Z,125.68
2022-08-03T18:00:00.145Z,119.88
2022-08-03T18:03:10.103Z,122.93
2022-08-03T18:06:10.987Z,113.90
2022-08-03T18:08:32.487Z,111.03
2022-08-03T18:11:14.332Z,114.23
2022-08-03T18:13:53.408Z,126.57
2022-08-03T18:16:35.511Z,119.63
2022-08-03T18:19:14.182Z,108.68
2022-08-03T18:22:02.782Z,122.72
2022-08-03T18:24:33.627Z,111.72
2022-08-03T18:27:03.386Z,117.40
2022-08-03T18:29:33.772Z,121.22
2022-08-03T18:32:06.813Z,116.45
2022-08-03T18:34:53.321Z,174.63
2022-08-03T18:37:26.162Z,131.82
2022-08-03T18:39:58.853Z,123.95
2022-08-03T18:42:32.261Z,119.22
2022-08-03T18:45:15.021Z,131.52
2022-08-03T18:48:05.161Z,118.13
2022-08-03T18:50:48.253Z,128.48
2022-08-03T18:54:01.884Z,117.88
2022-08-03T18:56:28.392Z,110.75
2022-08-03T18:59:05.341Z,105.43
2022-08-03T19:01:58.604Z,174.75
2022-08-03T19:04:37.250Z,113.55
2022-08-03T19:07:15.619Z,102.70
2022-08-03T19:09:54.479Z,107.97
2022-08-03T19:12:35.457Z,101.90
2022-08-03T19:15:12.925Z,92.07
2022-08-03T19:17:50.175Z,80.15
2022-08-03T19:20:25.319Z,85.38
2022-08-03T19:22:59.215Z,78.80
2022-08-03T19:25:34.858Z,139.27
2022-08-03T19:28:08.088Z,85.28
2022-08-03T19:30:40.651Z,85.13
2022-08-03T19:33:21.458Z,88.68
2022-08-03T19:35:56.971Z,80.03
2022-08-03T19:38:29.800Z,83.30
2022-08-03T19:46:31.087Z,51.47
2022-08-03T19:49:14.531Z,68.25
2022-08-03T19:52:00.998Z,79.55
2022-08-03T19:54:52.997Z,73.68
2022-08-03T19:57:27.395Z,67.68
2022-08-03T19:59:58.212Z,60.78
2022-08-03T20:02:29.890Z,81.68
2022-08-03T20:05:00.709Z,71.38
2022-08-03T20:07:32.394Z,67.43
2022-08-03T20:10:11.161Z,64.77
2022-08-03T20:12:43.592Z,68.32
2022-08-03T20:15:13.229Z,62.70
2022-08-03T20:17:57.006Z,69.50
2022-08-03T20:20:33.559Z,65.05
2022-08-03T20:23:08.541Z,69.45
2022-08-03T20:25:57.115Z,64.85
2022-08-03T20:28:34.230Z,82.65
2022-08-03T20:33:46.702Z,46.50
2022-08-03T20:36:19.753Z,55.85
2022-08-03T20:38:52.035Z,64.80
2022-08-03T20:41:23.525Z,58.90
2022-08-03T20:43:52.982Z,57.80
2022-08-03T20:46:29.063Z,71.43
2022-08-03T20:49:04.927Z,61.50
2022-08-03T20:51:50.051Z,63.97
2022-08-03T20:54:29.570Z,49.38
2022-08-03T20:57:04.384Z,59.35
2022-08-03T20:59:50.485Z,57.17
2022-08-03T21:02:29.813Z,75.68
2022-08-03T21:05:03.646Z,56.22
2022-08-03T21:08:03.991Z,82.57
2022-08-03T21:10:37.918Z,58.15
2022-08-03T21:13:18.160Z,57.97
2022-08-03T21:16:11.389Z,58.45
2022-08-03T21:18:46.870Z,53.67
2022-08-03T21:21:18.860Z,58.25
2022-08-03T21:23:52.883Z,58.78
2022-08-03T21:26:24.725Z,61.35
2022-08-03T21:28:57.784Z,62.53
2022-08-03T21:31:28.048Z,104.25
2022-08-03T21:33:59.279Z,237.52
2022-08-03T21:36:30.638Z,84.10
2022-08-03T21:39:00.899Z,73.60
2022-08-03T21:41:33.434Z,66.35
2022-08-03T21:44:05.261Z,57.63
2022-08-03T21:46:38.209Z,111.53
2022-08-03T21:49:51.773Z,57.65
2022-08-03T21:52:00.783Z,44.45
2022-08-03T21:54:44.443Z,51.92
2022-08-03T21:57:20.530Z,52.85
2022-08-03T21:59:55.616Z,60.92
2022-08-03T22:02:32.150Z,58.60
2022-08-03T22:05:04.988Z,64.07
2022-08-03T22:07:35.754Z,54.50
2022-08-03T22:10:07.965Z,65.22
2022-08-03T22:12:40.085Z,68.70
2022-08-03T22:15:13.282Z,73.03
2022-08-03T22:17:55.682Z,48.63
2022-08-03T22:20:26.572Z,60.95
2022-08-03T22:23:02.623Z,63.08
2022-08-03T22:25:35.191Z,55.40
2022-08-03T22:28:09.619Z,58.50
2022-08-03T22:30:41.933Z,52.08
2022-08-03T22:33:14.902Z,141.02
2022-08-03T22:35:47.714Z,47.72
2022-08-03T22:38:18.963Z,50.95
2022-08-03T22:40:51.238Z,63.33
2022-08-03T22:43:25.095Z,77.53
2022-08-03T22:46:11.196Z,49.65
2022-08-03T22:48:42.912Z,66.15
2022-08-03T22:51:12.606Z,95.93
2022-08-03T22:53:42.406Z,52.65
2022-08-03T22:56:12.410Z,65.35
2022-08-03T22:58:41.774Z,62.72
2022-08-03T23:01:14.860Z,44.75
2022-08-03T23:03:59.667Z,40.45
2022-08-03T23:06:36.737Z,42.67
2022-08-03T23:09:10.043Z,36.50
2022-08-03T23:11:42.990Z,45.28
2022-08-03T23:14:18.186Z,38.88
2022-08-03T23:16:50.147Z,37.57
2022-08-03T23:19:25.610Z,34.45
2022-08-03T23:22:00.408Z,84.60
2022-08-03T23:24:37.079Z,124.60
2022-08-03T23:27:08.592Z,60.00
2022-08-03T23:29:39.759Z,38.80
2022-08-03T23:32:14.276Z,99.22
2022-08-03T23:35:01.776Z,50.60
2022-08-03T23:37:33.583Z,39.97
2022-08-03T23:40:25.701Z,47.28
2022-08-03T23:42:59.076Z,68.93
2022-08-03T23:45:35.928Z,63.05
2022-08-03T23:48:07.498Z,50.95
2022-08-03T23:50:46.047Z,49.20
2022-08-03T23:53:22.903Z,58.55
2022-08-03T23:56:19.765Z,90.70
2022-08-03T23:59:08.093Z,69.10
